Time;durP1;ratioP1;P1;durP2;ratioP2;P2;SDS_P1;SDS_P2;PMS_P1;PMS_P2;Temp;Humidity;BMP_temperature;BMP_pressure;BME280_temperature;BME280_humidity;BME280_pressure;Samples;Min_cycle;Max_cycle;Signal;HPM_P1;HPM_P2
2022/06/23 00:01:14;1539208.00;5.13;2717.12;61377.00;0.20;106.86;;;;;23.80;6.40;;;;;;2276785;60;1103;-84
2022/06/23 00:03:42;1540173.00;5.13;2718.94;63949.00;0.21;111.30;;;;;23.80;5.30;;;;;;2276678;60;1081;-86
2022/06/23 00:06:36;442091.00;1.47;762.18;77082.00;0.26;134.00;;;;;23.90;4.80;;;;;;2276771;60;2012;-85
2022/06/23 00:09:28;539923.00;1.80;930.59;119745.00;0.40;207.64;;;;;23.90;5.50;;;;;;2276787;60;1393;-85
2022/06/23 00:11:55;229069.00;0.76;395.95;0.00;0.00;0.62;;;;;24.00;4.70;;;;;;2276124;60;963;-86
2022/06/23 00:14:24;300147.00;1.00;518.17;0.00;0.00;0.62;;;;;23.90;5.60;;;;;;2276183;60;1059;-85
2022/06/23 00:16:51;2120255.00;7.07;3874.24;107011.00;0.36;185.67;;;;;23.90;3.30;;;;;;2276625;61;2002;-86
2022/06/23 00:19:18;1155677.00;3.85;2010.29;131162.00;0.44;227.33;;;;;23.70;6.00;;;;;;2276686;61;1287;-86
2022/06/23 00:21:49;638870.00;2.13;1101.38;42965.00;0.14;75.02;;;;;23.80;4.90;;;;;;2276509;61;1142;-86
2022/06/23 00:24:22;590027.00;1.97;1017.00;20658.00;0.07;36.41;;;;;23.70;5.60;;;;;;2276590;61;1981;-86
2022/06/23 00:26:51;310441.00;1.03;535.87;0.00;0.00;0.62;;;;;23.70;5.90;;;;;;2276362;61;1082;-85
2022/06/23 00:29:22;642641.00;2.14;1107.91;0.00;0.00;0.62;;;;;23.70;4.60;;;;;;2276164;61;1217;-85
2022/06/23 00:31:56;1050260.00;3.50;1821.70;63881.00;0.21;111.19;;;;;23.80;4.40;;;;;;2276640;61;968;-87
2022/06/23 00:34:26;2007492.00;6.69;3639.72;148643.00;0.50;257.47;;;;;23.70;4.80;;;;;;2276666;61;1089;-86
2022/06/23 00:37:00;1686600.00;5.62;2999.42;71150.00;0.24;123.75;;;;;23.80;4.20;;;;;;2276646;61;1122;-86
2022/06/23 00:39:35;1438343.00;4.79;2527.63;158273.00;0.53;274.06;;;;;23.70;4.70;;;;;;2276634;61;1117;-87
2022/06/23 00:42:04;926014.00;3.09;1601.86;192265.00;0.64;332.61;;;;;23.60;3.30;;;;;;2276487;61;1069;-87
2022/06/23 00:44:38;119746808.00;399.16;69557456.00;37371.00;0.12;65.34;;;;;23.30;4.60;;;;;;2276553;61;1914;-86
2022/06/23 00:47:13;133531.00;0.45;231.42;0.00;0.00;0.62;;;;;23.40;5.40;;;;;;2276589;61;1431;-86
2022/06/23 00:49:49;368379.00;1.23;635.45;32538.00;0.11;56.98;;;;;23.40;5.90;;;;;;2276562;61;1079;-86
2022/06/23 00:52:23;89434.00;0.30;155.33;0.00;0.00;0.62;;;;;23.40;4.60;;;;;;2276586;61;1105;-86
2022/06/23 00:54:56;99050.00;0.33;171.93;0.00;0.00;0.62;;;;;23.50;3.90;;;;;;2276570;61;1175;-87
2022/06/23 00:57:32;212812.00;0.71;367.97;0.00;0.00;0.62;;;;;23.30;5.20;;;;;;2276565;61;1568;-86
2022/06/23 01:00:08;849127.00;2.83;1466.94;41829.00;0.14;73.05;;;;;23.50;2.90;;;;;;2276574;61;1100;-86
2022/06/23 01:02:41;1264703.00;4.22;2207.65;90543.00;0.30;157.25;;;;;23.50;3.20;;;;;;2276567;61;984;-86
2022/06/23 01:05:16;1651176.00;5.50;2930.95;167094.00;0.56;289.26;;;;;23.50;4.20;;;;;;2276397;61;1984;-86
2022/06/23 01:07:47;1339707.00;4.47;2344.96;120205.00;0.40;208.44;;;;;23.40;4.10;;;;;;2276185;61;1457;-86
2022/06/23 01:10:24;1291356.00;4.30;2256.29;77091.00;0.26;134.01;;;;;23.10;4.50;;;;;;2276586;61;1075;-88
2022/06/23 01:13:00;1332916.00;4.44;2332.47;222105.00;0.74;383.97;;;;;23.10;4.70;;;;;;2276539;61;1039;-86
2022/06/23 01:15:33;1064455.00;3.55;1846.97;184151.00;0.61;318.64;;;;;22.90;6.40;;;;;;2276563;61;1114;-86
2022/06/23 01:18:07;642325.00;2.14;1107.36;82404.00;0.27;143.19;;;;;22.90;5.40;;;;;;2276389;61;1333;-86
2022/06/23 01:20:46;335484.00;1.12;578.91;64425.00;0.21;112.13;;;;;22.90;4.40;;;;;;2276115;61;1086;-86
2022/06/23 01:24:01;625123.00;2.08;1077.62;65856.00;0.22;114.60;;;;;22.80;6.70;;;;;;2276504;61;1115;-86
2022/06/23 01:26:59;430430.00;1.43;742.13;103919.00;0.35;180.34;;;;;22.80;6.10;;;;;;2273892;61;2005;-86
2022/06/23 01:29:30;472333.00;1.57;814.20;63059.00;0.21;109.76;;;;;22.90;5.40;;;;;;2273993;61;1185;-86
2022/06/23 01:32:09;50912.00;0.17;88.76;0.00;0.00;0.62;;;;;22.90;5.40;;;;;;2276549;61;1114;-87
2022/06/23 01:34:46;110200.00;0.37;191.18;0.00;0.00;0.62;;;;;22.90;5.70;;;;;;2276571;61;1054;-87
2022/06/23 01:37:18;187884.00;0.63;325.07;0.00;0.00;0.62;;;;;22.70;6.30;;;;;;2276380;61;1455;-87
2022/06/23 01:39:50;96048.00;0.32;166.75;0.00;0.00;0.62;;;;;22.70;6.40;;;;;;2276540;61;1090;-87
2022/06/23 01:42:23;125368.00;0.42;217.34;21695.00;0.07;38.21;;;;;22.70;6.40;;;;;;2276238;61;1114;-86
2022/06/23 01:45:00;313168.00;1.04;540.55;42722.00;0.14;74.60;;;;;22.90;5.30;;;;;;2276420;61;1919;-86
2022/06/23 01:47:35;114470.00;0.38;198.54;0.00;0.00;0.62;;;;;22.90;6.40;;;;;;2276444;61;1468;-86
2022/06/23 01:50:26;646993.00;2.16;1115.43;44075.00;0.15;76.94;;;;;22.90;5.40;;;;;;2276492;61;949;-84
2022/06/23 01:53:12;1957743.00;6.53;3537.91;180165.00;0.60;311.77;;;;;22.80;5.60;;;;;;2276283;61;1508;-85
2022/06/23 01:56:08;870984.00;2.90;1505.21;23614.00;0.08;41.53;;;;;22.60;6.50;;;;;;2276449;61;1075;-84
2022/06/23 01:58:51;1372895.00;4.58;2406.15;188078.00;0.63;325.40;;;;;22.40;6.40;;;;;;2276359;61;1351;-86
2022/06/23 02:01:27;1546329.00;5.15;2730.60;81629.00;0.27;141.85;;;;;22.60;5.30;;;;;;2276408;61;1110;-86
2022/06/23 02:04:02;1841669.00;6.14;3304.13;132415.00;0.44;229.49;;;;;22.70;5.20;;;;;;2276415;61;981;-86
2022/06/23 02:06:39;1376497.00;4.59;2412.80;97047.00;0.32;168.47;;;;;22.50;6.20;;;;;;2276393;61;1936;-86
2022/06/23 02:09:17;1204584.00;4.02;2098.51;152859.00;0.51;264.73;;;;;22.70;5.70;;;;;;2276336;61;1449;-86
2022/06/23 02:11:48;1726221.00;5.75;3076.49;240010.00;0.80;414.77;;;;;22.60;5.50;;;;;;2276398;61;1094;-85
2022/06/23 02:14:24;121902760.00;406.34;73386104.00;121046288.00;403.49;71848752.00;;;;;22.60;6.20;;;;;;2276404;61;1078;-85
2022/06/23 02:16:58;493904.00;1.65;851.33;73233.00;0.24;127.35;;;;;22.80;4.80;;;;;;2276288;61;1022;-86
2022/06/23 02:19:35;546822.00;1.82;942.48;92175.00;0.31;160.06;;;;;22.90;4.00;;;;;;2276386;61;1091;-85
2022/06/23 02:22:13;454795.00;1.52;784.03;66250.00;0.22;115.28;;;;;23.00;4.00;;;;;;2276356;61;1071;-86
2022/06/23 02:24:47;213262.00;0.71;368.75;0.00;0.00;0.62;;;;;23.00;4.10;;;;;;2276404;61;1923;-85
2022/06/23 02:27:18;72099.00;0.24;125.39;0.00;0.00;0.62;;;;;22.70;4.40;;;;;;2276298;61;1249;-87
2022/06/23 02:29:54;38985.00;0.13;68.13;0.00;0.00;0.62;;;;;22.70;4.00;;;;;;2276376;61;1058;-87
2022/06/23 02:32:32;0.00;0.00;0.62;0.00;0.00;0.62;;;;;22.80;4.70;;;;;;2276363;61;1138;-86
2022/06/23 02:35:08;273961.00;0.91;473.15;83892.00;0.28;145.76;;;;;22.80;4.60;;;;;;2276330;61;1066;-85
2022/06/23 02:37:59;179188.00;0.60;310.09;0.00;0.00;0.62;;;;;22.70;4.50;;;;;;2276305;61;1356;-86
2022/06/23 02:40:33;33645.00;0.11;58.89;0.00;0.00;0.62;;;;;22.80;4.80;;;;;;2276329;61;1380;-86
2022/06/23 02:43:13;54629.00;0.18;95.19;0.00;0.00;0.62;;;;;22.70;5.00;;;;;;2276337;61;1548;-86
2022/06/23 02:46:18;102386.00;0.34;177.69;0.00;0.00;0.62;;;;;22.60;5.90;;;;;;2276275;61;1985;-85
2022/06/23 02:49:09;149562.00;0.50;259.05;0.00;0.00;0.62;;;;;22.30;5.90;;;;;;2276259;61;1289;-85
2022/06/23 02:52:03;95128.00;0.32;165.16;0.00;0.00;0.62;;;;;22.30;5.40;;;;;;2276307;61;1127;-86
2022/06/23 02:54:59;0.00;0.00;0.62;0.00;0.00;0.62;;;;;22.00;6.00;;;;;;2276254;61;1194;-86
2022/06/23 02:57:43;101558.00;0.34;176.26;0.00;0.00;0.62;;;;;21.80;6.50;;;;;;2276182;61;1405;-85
2022/06/23 03:00:16;87549.00;0.29;152.08;0.00;0.00;0.62;;;;;21.90;6.70;;;;;;2276283;61;1021;-85
2022/06/23 03:02:55;151051.00;0.50;261.62;0.00;0.00;0.62;;;;;21.90;6.30;;;;;;2276288;61;1087;-87
2022/06/23 03:05:35;32997.00;0.11;57.77;0.00;0.00;0.62;;;;;21.90;6.70;;;;;;2276211;61;1923;-86
2022/06/23 03:08:07;0.00;0.00;0.62;0.00;0.00;0.62;;;;;21.80;6.30;;;;;;2276148;61;1340;-87
2022/06/23 03:10:42;0.00;0.00;0.62;0.00;0.00;0.62;;;;;22.20;5.90;;;;;;2276244;61;1138;-87
2022/06/23 03:13:17;14988.00;0.05;26.59;0.00;0.00;0.62;;;;;22.50;5.10;;;;;;2276219;61;1125;-87
2022/06/23 03:15:53;123996.00;0.41;214.97;0.00;0.00;0.62;;;;;22.80;4.50;;;;;;2276233;61;1028;-85
2022/06/23 03:18:26;54496.00;0.18;94.96;0.00;0.00;0.62;;;;;22.90;4.70;;;;;;2276188;61;1459;-86
2022/06/23 03:21:01;135214.00;0.45;234.32;0.00;0.00;0.62;;;;;22.90;3.40;;;;;;2276196;61;1129;-86
2022/06/23 03:23:37;785913.00;2.62;1356.57;38292.00;0.13;66.93;;;;;23.00;3.20;;;;;;2276123;61;1606;-85
2022/06/23 03:26:15;1220491.00;4.07;2127.31;133325.00;0.44;231.06;;;;;22.80;3.20;;;;;;2275943;61;2004;-87
2022/06/23 03:28:49;1203655.00;4.01;2096.83;160668.00;0.54;278.19;;;;;22.90;3.50;;;;;;2276077;61;1439;-87
2022/06/23 03:31:24;1277565.00;4.26;2231.10;186969.00;0.62;323.49;;;;;23.10;2.80;;;;;;2276176;61;1054;-87
2022/06/23 03:33:57;1242598.00;4.14;2167.43;178179.00;0.59;308.35;;;;;23.10;2.60;;;;;;2276142;61;928;-86
2022/06/23 03:36:33;1439920.00;4.80;2530.57;133174.00;0.44;230.80;;;;;23.10;2.70;;;;;;2276060;61;1587;-87
2022/06/23 03:42:10;160702.00;0.54;278.25;0.00;0.00;0.62;;;;;22.60;4.80;;;;;;2276144;61;596;-86
2022/06/23 03:44:48;526235.00;1.75;907.01;60073.00;0.20;104.60;;;;;22.20;5.80;;;;;;2276032;61;1726;-87
2022/06/23 03:47:24;592796.00;1.98;1021.78;66155.00;0.22;115.12;;;;;22.00;6.40;;;;;;2276067;61;2006;-87
2022/06/23 03:49:57;144395.00;0.48;250.15;0.00;0.00;0.62;;;;;21.90;6.80;;;;;;2276092;61;1557;-87
2022/06/23 03:52:36;42750.00;0.14;74.65;0.00;0.00;0.62;;;;;22.10;6.20;;;;;;2276036;61;2084;-88
2022/06/23 03:55:14;665319.00;2.22;1147.15;83954.00;0.28;145.87;;;;;22.40;5.10;;;;;;2276084;61;1537;-88
2022/06/23 03:57:46;1000185.00;3.33;1732.80;213502.00;0.71;369.16;;;;;22.50;4.70;;;;;;2276072;61;1380;-86
2022/06/23 04:00:25;836597.00;2.79;1445.03;165266.00;0.55;286.11;;;;;22.60;4.60;;;;;;2276095;61;1090;-86
2022/06/23 04:03:19;1279318.00;4.26;2234.30;217157.00;0.72;375.45;;;;;22.60;4.60;;;;;;2276152;61;1000;-86
2022/06/23 04:06:25;555023.00;1.85;956.62;40957.00;0.14;71.54;;;;;22.60;4.20;;;;;;2276412;61;1927;-85
2022/06/23 04:09:02;174252.00;0.58;301.59;2375.00;0.01;4.74;;;;;22.00;5.60;;;;;;2275663;61;1384;-86
2022/06/23 04:11:46;142702.00;0.48;247.23;0.00;0.00;0.62;;;;;21.90;7.00;;;;;;2276761;61;1062;-84
2022/06/23 04:14:31;713904.00;2.38;1231.36;0.00;0.00;0.62;;;;;22.20;6.20;;;;;;2276275;61;1719;-86
2022/06/23 04:17:11;384651.00;1.28;663.42;0.00;0.00;0.62;;;;;22.40;5.40;;;;;;2276772;61;1145;-87
2022/06/23 04:19:44;127970.00;0.43;221.83;0.00;0.00;0.62;;;;;22.40;5.50;;;;;;2276812;61;1059;-85
2022/06/23 04:22:15;674277.00;2.25;1162.66;40161.00;0.13;70.17;;;;;22.60;5.00;;;;;;2276736;61;947;-85
2022/06/23 04:24:47;1325666.00;4.42;2319.15;83691.00;0.28;145.41;;;;;22.50;5.30;;;;;;2276779;61;1116;-84
2022/06/23 04:27:20;1240071.00;4.13;2162.84;119687.00;0.40;207.54;;;;;22.50;5.10;;;;;;2276681;61;1998;-85
2022/06/23 04:29:52;1324370.00;4.41;2316.78;169137.00;0.56;292.78;;;;;22.20;6.00;;;;;;2276702;61;1067;-86
2022/06/23 04:32:25;1170994.00;3.90;2037.86;77525.00;0.26;134.76;;;;;21.90;8.10;;;;;;2276713;61;1102;-86
2022/06/23 04:34:56;124495592.00;414.99;78173752.00;185287.00;0.62;320.59;;;;;22.00;7.00;;;;;;2276502;61;1100;-87
2022/06/23 04:37:43;937281.00;3.12;1621.69;202879.00;0.68;350.88;;;;;22.30;6.30;;;;;;2276330;61;1454;-87
2022/06/23 04:40:22;1550167.00;5.17;2737.88;186495.00;0.62;322.67;;;;;22.40;5.90;;;;;;2276635;61;1019;-86
2022/06/23 04:42:57;1074498.00;3.58;1864.88;102787.00;0.34;178.38;;;;;22.50;5.50;;;;;;2276539;61;1071;-86
2022/06/23 04:45:37;1316329.00;4.39;2302.02;206488.00;0.69;357.09;;;;;22.70;5.00;;;;;;2276595;61;1994;-86
2022/06/23 04:48:11;1148873.00;3.83;1998.05;103735.00;0.35;180.02;;;;;22.90;4.00;;;;;;2276529;61;1455;-86
2022/06/23 04:50:48;1146232.00;3.82;1993.30;112494.00;0.37;195.13;;;;;22.70;4.60;;;;;;2276568;61;1570;-85
2022/06/23 04:53:43;1140398.00;3.80;1982.82;133036.00;0.44;230.56;;;;;22.90;4.30;;;;;;2276608;61;1141;-86
2022/06/23 04:56:24;107763.00;0.36;186.97;0.00;0.00;0.62;;;;;23.10;4.10;;;;;;2276502;61;987;-86
2022/06/23 04:58:56;78524.00;0.26;136.49;0.00;0.00;0.62;;;;;23.30;3.20;;;;;;2276587;61;1396;-86
2022/06/23 05:01:28;684911.00;2.28;1181.08;54398.00;0.18;94.79;;;;;23.50;3.00;;;;;;2276536;61;1033;-86
2022/06/23 05:03:58;857235.00;2.86;1481.13;99085.00;0.33;171.99;;;;;23.50;3.00;;;;;;2276593;61;1051;-85
2022/06/23 05:06:36;776527.00;2.59;1340.22;19660.00;0.07;34.68;;;;;23.70;2.30;;;;;;2276543;61;1984;-85
2022/06/23 05:09:10;745645.00;2.49;1286.49;31515.00;0.11;55.21;;;;;23.70;2.20;;;;;;2276533;61;1482;-86
2022/06/23 05:11:45;507567.00;1.69;874.85;120924.00;0.40;209.68;;;;;23.80;3.10;;;;;;2276572;61;1085;-85
2022/06/23 05:14:22;669133.00;2.23;1153.75;122504.00;0.41;212.40;;;;;23.70;3.50;;;;;;2276538;61;1075;-86
2022/06/23 05:16:55;126544.00;0.42;219.37;0.00;0.00;0.62;;;;;23.70;3.50;;;;;;2276368;61;932;-86
2022/06/23 05:19:27;29604.00;0.10;51.90;0.00;0.00;0.62;;;;;23.70;3.50;;;;;;2276476;61;1440;-86
2022/06/23 05:21:59;123081.00;0.41;213.40;0.00;0.00;0.62;;;;;23.70;3.50;;;;;;2276556;61;1122;-86
2022/06/23 05:24:30;0.00;0.00;0.62;0.00;0.00;0.62;;;;;23.80;3.20;;;;;;2276505;61;1091;-86
2022/06/23 05:27:03;366772.00;1.22;632.69;57786.00;0.19;100.65;;;;;24.00;3.40;;;;;;2276411;61;1913;-86
2022/06/23 05:29:36;107820.00;0.36;187.07;37069.00;0.12;64.82;;;;;24.00;3.00;;;;;;2276476;61;1102;-86
2022/06/23 05:32:07;528825.00;1.76;911.47;5091.00;0.02;9.44;;;;;24.30;2.90;;;;;;2276462;61;1029;-85
2022/06/23 05:34:46;863592.00;2.88;1492.26;87187.00;0.29;151.45;;;;;24.50;1.70;;;;;;2276387;61;1110;-86
2022/06/23 05:37:21;630753.00;2.10;1087.35;97953.00;0.33;170.04;;;;;24.60;1.40;;;;;;2276313;61;1353;-85
2022/06/23 05:39:55;560481.00;1.87;966.03;16894.00;0.06;29.89;;;;;24.60;2.70;;;;;;2276258;61;1053;-85
2022/06/23 05:42:27;687457.00;2.29;1185.49;70908.00;0.24;123.33;;;;;25.60;4.30;;;;;;2276114;61;1019;-87
2022/06/23 05:44:59;718000.00;2.39;1238.47;85026.00;0.28;147.72;;;;;27.00;5.80;;;;;;2276424;61;1042;-86
2022/06/23 05:47:31;848994.00;2.83;1466.71;91705.00;0.31;159.25;;;;;28.90;1.00;;;;;;2276417;61;2000;-87
2022/06/23 05:50:03;961566.00;3.21;1664.52;66302.00;0.22;115.37;;;;;30.00;1.00;;;;;;2276433;61;1078;-88
2022/06/23 05:52:39;1077362.00;3.59;1869.99;63963.00;0.21;111.33;;;;;30.90;1.00;;;;;;2276475;61;1086;-86
2022/06/23 05:55:15;630194.00;2.10;1086.38;88237.00;0.29;153.26;;;;;32.40;1.00;;;;;;2276427;61;1037;-86
2022/06/23 05:57:51;599396.00;2.00;1033.18;83476.00;0.28;145.04;;;;;33.80;1.00;;;;;;2275980;61;1320;-86
2022/06/23 06:00:29;404331.00;1.35;697.25;28586.00;0.10;50.14;;;;;34.60;1.00;;;;;;2275969;61;1713;-85
2022/06/23 06:03:01;70805.00;0.24;123.15;0.00;0.00;0.62;;;;;34.70;1.00;;;;;;2276296;61;2144;-87
2022/06/23 06:05:34;144276.00;0.48;249.94;0.00;0.00;0.62;;;;;34.70;1.00;;;;;;2276397;61;957;-84
2022/06/23 06:08:06;469904.00;1.57;810.02;23836.00;0.08;41.91;;;;;35.50;1.00;;;;;;2276273;61;1998;-86
2022/06/23 06:10:35;912342.00;3.04;1577.81;129351.00;0.43;224.21;;;;;36.40;1.00;;;;;;2276336;61;1165;-86
2022/06/23 06:13:08;1326833.00;4.42;2321.30;132443.00;0.44;229.54;;;;;36.50;1.00;;;;;;2276280;61;2069;-86
2022/06/23 06:15:40;1053547.00;3.51;1827.55;129618.00;0.43;224.67;;;;;36.50;1.00;;;;;;2276360;61;1028;-86
2022/06/23 06:18:15;202454.00;0.67;350.15;61749.00;0.21;107.50;;;;;37.10;1.00;;;;;;2276295;61;1427;-86
2022/06/23 06:20:42;126553.00;0.42;219.38;0.00;0.00;0.62;;;;;37.40;1.00;;;;;;2276328;61;1110;-86
2022/06/23 06:23:16;176175.00;0.59;304.90;31606.00;0.11;55.36;;;;;37.40;1.00;;;;;;2276320;61;1137;-85
2022/06/23 06:25:48;107161.00;0.36;185.93;0.00;0.00;0.62;;;;;37.90;1.00;;;;;;2276249;61;1204;-87
2022/06/23 06:28:19;0.00;0.00;0.62;0.00;0.00;0.62;;;;;38.10;1.00;;;;;;2276040;61;2158;-85
2022/06/23 06:30:56;16865.00;0.06;29.84;0.00;0.00;0.62;;;;;38.20;1.00;;;;;;2276281;61;2085;-86
2022/06/23 06:33:35;1993.00;0.01;4.07;0.00;0.00;0.62;;;;;38.40;1.00;;;;;;2276310;61;1086;-85
2022/06/23 06:36:02;148096.00;0.49;256.53;73207.00;0.24;127.30;;;;;38.10;1.00;;;;;;2276306;61;1039;-85
2022/06/23 06:38:31;23700.00;0.08;41.68;0.00;0.00;0.62;;;;;37.80;1.00;;;;;;2276305;61;1377;-85
2022/06/23 06:41:00;309663.00;1.03;534.53;62359.00;0.21;108.55;;;;;38.40;1.00;;;;;;2276217;61;1110;-87
2022/06/23 06:43:33;0.00;0.00;0.62;0.00;0.00;0.62;;;;;38.20;1.00;;;;;;2276209;61;1138;-86
2022/06/23 06:46:00;0.00;0.00;0.62;0.00;0.00;0.62;;;;;38.30;1.00;;;;;;2276301;61;1911;-85
2022/06/23 06:48:33;977186.00;3.26;1692.11;32798.00;0.11;57.43;;;;;37.70;1.00;;;;;;2276261;61;1390;-84
2022/06/23 06:51:05;1092489.00;3.64;1897.00;67840.00;0.23;118.03;;;;;37.60;1.00;;;;;;2276345;61;1099;-86
2022/06/23 06:53:39;1450206.00;4.83;2549.77;133904.00;0.45;232.06;;;;;37.90;1.00;;;;;;2276236;61;1046;-85
2022/06/23 06:56:12;1609555.00;5.37;2851.01;136111.00;0.45;235.87;;;;;38.30;1.00;;;;;;2276265;61;2150;-85
2022/06/23 06:58:46;1094910.00;3.65;1901.32;111439.00;0.37;193.31;;;;;38.80;1.00;;;;;;2276224;61;1538;-85
2022/06/23 07:01:19;990777.00;3.30;1716.14;103613.00;0.35;179.81;;;;;38.70;1.00;;;;;;2276193;61;1094;-87
2022/06/23 07:03:49;926415.00;3.09;1602.56;53765.00;0.18;93.70;;;;;39.50;1.00;;;;;;2276285;61;1103;-85
2022/06/23 07:06:20;281654.00;0.94;486.38;58398.00;0.19;101.71;;;;;39.30;1.00;;;;;;2276229;61;1988;-86
2022/06/23 07:08:53;397394.00;1.32;685.33;37707.00;0.13;65.92;;;;;39.00;1.00;;;;;;2276236;61;1478;-85
2022/06/23 07:11:24;328536.00;1.10;566.97;55457.00;0.18;96.62;;;;;39.00;1.00;;;;;;2276153;61;1034;-85
2022/06/23 07:14:00;498668.00;1.66;859.53;125082.00;0.42;216.85;;;;;39.10;1.00;;;;;;2276227;61;1019;-85
2022/06/23 07:16:32;163244.00;0.54;282.63;52099.00;0.17;90.82;;;;;39.50;1.00;;;;;;2276176;61;1188;-86
2022/06/23 07:19:06;458891.00;1.53;791.08;136442.00;0.45;236.44;;;;;40.40;1.00;;;;;;2276183;61;1469;-85
2022/06/23 07:21:39;1037117.00;3.46;1798.32;111155.00;0.37;192.82;;;;;39.60;1.00;;;;;;2276028;61;1396;-86
2022/06/23 07:24:14;123919696.00;413.07;77092872.00;17346.00;0.06;30.67;;;;;38.80;1.00;;;;;;2276184;61;1152;-87
2022/06/23 07:26:48;150793.00;0.50;261.17;0.00;0.00;0.62;;;;;38.40;1.00;;;;;;2276111;61;1919;-86
2022/06/23 07:29:26;147845.00;0.49;256.09;0.00;0.00;0.62;;;;;38.70;1.00;;;;;;2276114;61;1302;-86
2022/06/23 07:32:06;90210.00;0.30;156.67;0.00;0.00;0.62;;;;;39.80;1.00;;;;;;2276266;61;956;-86
2022/06/23 07:34:39;74224.00;0.25;129.06;0.00;0.00;0.62;;;;;39.70;1.00;;;;;;2276104;61;1043;-87
2022/06/23 07:37:15;48556.00;0.16;84.69;0.00;0.00;0.62;;;;;40.60;1.00;;;;;;2276117;61;1602;-85
2022/06/23 07:39:42;0.00;0.00;0.62;0.00;0.00;0.62;;;;;40.10;1.00;;;;;;2276563;61;1059;-87
2022/06/23 07:42:20;133389.00;0.44;231.17;51578.00;0.17;89.92;;;;;39.10;1.00;;;;;;2276873;61;1021;-87
2022/06/23 07:44:53;63458.00;0.21;110.45;0.00;0.00;0.62;;;;;39.40;1.00;;;;;;2276912;61;1026;-86
2022/06/23 07:47:22;239299.00;0.80;413.55;2802.00;0.01;5.48;;;;;38.70;1.00;;;;;;2276807;61;1913;-85
2022/06/23 07:49:49;131035.00;0.44;227.11;0.00;0.00;0.62;;;;;38.10;1.00;;;;;;2276850;61;1501;-86
2022/06/23 07:52:19;35921.00;0.12;62.83;0.00;0.00;0.62;;;;;38.40;1.00;;;;;;2276846;61;1238;-85
2022/06/23 07:54:49;237320.00;0.79;410.14;7746.00;0.03;14.04;;;;;38.60;1.00;;;;;;2276840;61;1081;-86
2022/06/23 07:57:16;82642.00;0.28;143.60;15857.00;0.05;28.10;;;;;38.80;1.00;;;;;;2276759;61;1273;-86
2022/06/23 07:59:50;141565.00;0.47;245.27;0.00;0.00;0.62;;;;;38.70;1.00;;;;;;2276813;61;1080;-86
2022/06/23 08:02:22;256396.00;0.85;442.95;54266.00;0.18;94.56;;;;;38.00;1.00;;;;;;2276865;61;1165;-86
2022/06/23 08:04:58;228529.00;0.76;395.02;0.00;0.00;0.62;;;;;37.90;1.00;;;;;;2276893;61;1167;-85
2022/06/23 08:07:26;223865.00;0.75;386.99;10989.00;0.04;19.66;;;;;38.50;1.00;;;;;;2276749;61;1919;-86
2022/06/23 08:09:56;75687.00;0.25;131.59;0.00;0.00;0.62;;;;;38.50;1.00;;;;;;2276820;61;1172;-86
2022/06/23 08:18:12;158883.00;0.53;275.11;17527.00;0.06;30.99;;;;;38.40;1.00;;;;;;2276769;61;1345;-85
2022/06/23 08:20:46;249555.00;0.83;431.19;40700.00;0.14;71.10;;;;;38.90;1.00;;;;;;2276762;61;1063;-86
2022/06/23 08:23:16;70564.00;0.24;122.74;0.00;0.00;0.62;;;;;39.10;1.00;;;;;;2276746;61;1166;-87
2022/06/23 08:25:44;134423.00;0.45;232.96;0.00;0.00;0.62;;;;;38.90;1.00;;;;;;2276735;61;1908;-86
2022/06/23 08:28:11;13363.00;0.04;23.78;0.00;0.00;0.62;;;;;38.50;1.00;;;;;;2276575;61;1915;-86
2022/06/23 08:30:41;209129.00;0.70;361.64;0.00;0.00;0.62;;;;;37.60;1.00;;;;;;2276763;61;1092;-86
2022/06/23 08:33:09;151925.00;0.51;263.13;0.00;0.00;0.62;;;;;38.10;1.00;;;;;;2276730;61;1082;-85
2022/06/23 08:35:42;58017.00;0.19;101.05;0.00;0.00;0.62;;;;;38.50;1.00;;;;;;2276744;61;1075;-87
2022/06/23 08:38:12;205000.00;0.68;354.53;0.00;0.00;0.62;;;;;38.60;1.00;;;;;;2276704;61;1466;-86
2022/06/23 08:40:57;56613.00;0.19;98.62;0.00;0.00;0.62;;;;;38.30;1.00;;;;;;2276717;61;1082;-85
2022/06/23 08:43:33;26426.00;0.09;46.40;0.00;0.00;0.62;;;;;38.50;1.00;;;;;;2276671;61;1146;-85
2022/06/23 08:46:10;168644.00;0.56;291.93;0.00;0.00;0.62;;;;;38.20;1.00;;;;;;2276637;61;1133;-84
2022/06/23 08:48:43;352955.00;1.18;608.94;36529.00;0.12;63.88;;;;;37.30;1.00;;;;;;2276579;61;1932;-85
2022/06/23 08:51:20;345939.00;1.15;596.88;82363.00;0.27;143.12;;;;;37.40;1.00;;;;;;2276481;61;1052;-84
2022/06/23 08:54:08;374338.00;1.25;645.69;0.00;0.00;0.62;;;;;37.10;1.00;;;;;;2276696;61;1172;-86
2022/06/23 08:56:44;169369.00;0.56;293.18;52662.00;0.18;91.79;;;;;36.50;1.00;;;;;;2276670;61;912;-85
2022/06/23 08:59:20;0.00;0.00;0.62;0.00;0.00;0.62;;;;;37.00;1.00;;;;;;2276581;61;1447;-86
2022/06/23 09:01:56;264329.00;0.88;456.59;53102.00;0.18;92.55;;;;;37.20;1.00;;;;;;2276633;61;1097;-85
2022/06/23 09:04:35;256142.00;0.85;442.51;63342.00;0.21;110.25;;;;;36.40;1.00;;;;;;2276531;61;1536;-86
2022/06/23 09:07:11;297802.00;0.99;514.14;57660.00;0.19;100.43;;;;;36.70;1.00;;;;;;2276588;61;1983;-85
2022/06/23 09:09:49;292429.00;0.97;504.91;60925.00;0.20;106.08;;;;;36.30;1.00;;;;;;2276621;61;1149;-84
2022/06/23 09:12:27;457201.00;1.52;788.17;114708.00;0.38;198.95;;;;;35.70;1.00;;;;;;2276635;61;1072;-84
2022/06/23 09:15:40;264471.00;0.88;456.84;62740.00;0.21;109.21;;;;;35.70;1.00;;;;;;2276509;61;2252;-85
2022/06/23 09:18:44;806761.00;2.69;1392.92;63086.00;0.21;109.81;;;;;35.80;1.00;;;;;;2276561;61;1285;-86
2022/06/23 09:21:42;348735.00;1.16;601.69;0.00;0.00;0.62;;;;;35.60;1.00;;;;;;2276597;61;1121;-86
2022/06/23 09:24:45;662869.00;2.21;1142.91;24417.00;0.08;42.92;;;;;35.60;1.00;;;;;;2276569;61;1127;-85
2022/06/23 09:27:18;825992.00;2.75;1426.49;15543.00;0.05;27.55;;;;;35.10;1.00;;;;;;2269155;61;1922;-86
2022/06/23 09:29:56;839921.00;2.80;1450.84;91241.00;0.30;158.45;;;;;34.10;1.00;;;;;;2276602;61;1023;-86
2022/06/23 09:32:52;1623301.00;5.41;2877.35;134173.00;0.45;232.52;;;;;33.60;1.00;;;;;;2276550;61;1083;-85
2022/06/23 09:35:55;1062803.00;3.54;1844.03;181932.00;0.61;314.82;;;;;33.50;1.00;;;;;;2275162;61;1858;-84
2022/06/23 09:38:48;225672.00;0.75;390.10;42090.00;0.14;73.50;;;;;33.50;1.00;;;;;;2276385;61;1372;-84
2022/06/23 09:41:35;187309.00;0.62;324.08;1107.00;0.00;2.54;;;;;33.50;1.00;;;;;;2276406;61;1144;-86
2022/06/23 09:44:24;341361.00;1.14;589.01;44527.00;0.15;77.72;;;;;33.70;1.00;;;;;;2276502;61;1079;-85
2022/06/23 09:47:01;558494.00;1.86;962.60;82064.00;0.27;142.60;;;;;33.50;1.00;;;;;;2276362;61;2004;-86
2022/06/23 09:50:21;586273.00;1.95;1010.52;41889.00;0.14;73.16;;;;;33.30;1.00;;;;;;2276488;61;1129;-85
2022/06/23 09:53:21;227990.00;0.76;394.09;11325.00;0.04;20.24;;;;;33.60;1.00;;;;;;2276501;61;1085;-85
2022/06/23 09:56:07;157683.00;0.53;273.05;0.00;0.00;0.62;;;;;32.60;1.00;;;;;;2276513;61;1151;-84
2022/06/23 09:58:59;28678.00;0.10;50.29;0.00;0.00;0.62;;;;;32.40;1.00;;;;;;2276417;61;1463;-85
2022/06/23 10:01:46;611924.00;2.04;1054.81;62687.00;0.21;109.12;;;;;32.40;1.00;;;;;;2276348;61;1715;-85
2022/06/23 10:04:26;210560.00;0.70;364.10;54524.00;0.18;95.01;;;;;32.10;1.00;;;;;;2276401;61;1094;-85
2022/06/23 10:07:12;89753.00;0.30;155.88;0.00;0.00;0.62;;;;;31.60;1.00;;;;;;2276404;61;1046;-86
2022/06/23 10:10:00;253203.00;0.84;437.46;0.00;0.00;0.62;;;;;31.90;1.00;;;;;;2276411;61;1122;-84
2022/06/23 10:12:53;0.00;0.00;0.62;0.00;0.00;0.62;;;;;32.10;1.00;;;;;;2276448;61;1017;-84
2022/06/23 10:15:37;616043.00;2.05;1061.93;105888.00;0.35;183.73;;;;;31.00;1.00;;;;;;2276459;61;1366;-85
2022/06/23 10:18:42;533711.00;1.78;919.89;38525.00;0.13;67.34;;;;;31.10;1.00;;;;;;2276350;61;1472;-85
2022/06/23 10:21:23;659887.00;2.20;1137.75;19260.00;0.06;33.99;;;;;30.90;1.00;;;;;;2276293;61;1129;-85
2022/06/23 10:24:16;377678.00;1.26;651.43;33952.00;0.11;59.42;;;;;31.10;1.00;;;;;;2276327;61;1133;-84